Time;durP1;ratioP1;P1;durP2;ratioP2;P2;SDS_P1;SDS_P2;PMS_P1;PMS_P2;Temp;Humidity;BMP_temperature;BMP_pressure;BME280_temperature;BME280_humidity;BME280_pressure;Samples;Min_cycle;Max_cycle;Signal;HPM_P1;HPM_P2
2022/06/27 00:01:02;;;;;;;31.08;26.95;;;16.50;99.90;;;;;;5052923;28;20060;-77
2022/06/27 00:03:29;;;;;;;33.88;27.95;;;16.60;99.90;;;;;;5048327;28;20040;-77
2022/06/27 00:05:56;;;;;;;32.85;27.40;;;16.60;99.90;;;;;;5061034;28;20036;-77
2022/06/27 00:08:23;;;;;;;32.30;27.50;;;16.70;99.90;;;;;;5031263;28;20063;-77
2022/06/27 00:10:50;;;;;;;31.77;25.45;;;16.70;99.90;;;;;;5067011;28;20478;-77
2022/06/27 00:13:17;;;;;;;31.20;27.92;;;16.60;99.90;;;;;;5048899;28;20056;-77
2022/06/27 00:15:43;;;;;;;32.90;26.10;;;16.50;99.90;;;;;;5031606;28;20052;-77
2022/06/27 00:18:10;;;;;;;34.63;28.15;;;16.40;99.90;;;;;;5049116;28;20048;-77
2022/06/27 00:20:37;;;;;;;28.45;25.20;;;16.40;99.90;;;;;;5047611;28;20645;-77
2022/06/27 00:23:04;;;;;;;33.60;25.48;;;16.30;99.90;;;;;;5037367;28;20044;-77
2022/06/27 00:25:31;;;;;;;29.73;24.88;;;16.50;99.90;;;;;;5067522;28;20048;-78
2022/06/27 00:27:57;;;;;;;33.10;26.05;;;16.50;99.90;;;;;;5068537;28;20036;-76
2022/06/27 00:30:24;;;;;;;35.45;26.98;;;16.50;99.90;;;;;;5049935;28;20071;-77
2022/06/27 00:32:51;;;;;;;35.65;27.63;;;16.50;99.90;;;;;;5065369;28;20154;-78
2022/06/27 00:35:18;;;;;;;35.00;28.35;;;16.50;99.90;;;;;;5055170;28;20075;-78
2022/06/27 00:37:45;;;;;;;37.53;29.42;;;16.50;99.90;;;;;;5048125;28;20052;-78
2022/06/27 00:40:12;;;;;;;37.40;28.98;;;16.50;99.90;;;;;;5047006;28;20103;-77
2022/06/27 00:42:39;;;;;;;33.22;26.88;;;16.50;99.90;;;;;;5047546;28;20066;-77
2022/06/27 00:45:22;;;;;;;32.65;26.20;;;16.50;99.90;;;;;;5104857;22;20404;31
2022/06/27 00:47:50;;;;;;;38.10;26.88;;;16.50;99.90;;;;;;5016788;28;20060;-74
2022/06/27 00:50:17;;;;;;;39.78;29.05;;;16.40;99.90;;;;;;5018885;28;20088;-75
2022/06/27 00:52:44;;;;;;;37.67;28.13;;;16.40;99.90;;;;;;5018166;28;20069;-75
2022/06/27 00:55:11;;;;;;;31.10;24.40;;;16.40;99.90;;;;;;5018710;28;20108;-75
2022/06/27 00:57:38;;;;;;;34.95;26.83;;;16.40;99.90;;;;;;5021368;28;20115;-75
2022/06/27 01:00:06;;;;;;;33.70;26.42;;;16.40;99.90;;;;;;5002968;28;20081;-75
2022/06/27 01:02:33;;;;;;;33.53;24.55;;;16.40;99.90;;;;;;5039477;28;20046;-75
2022/06/27 01:05:00;;;;;;;26.85;22.52;;;16.40;99.90;;;;;;5040493;28;20563;-75
2022/06/27 01:07:27;;;;;;;35.58;25.08;;;16.40;99.90;;;;;;5020467;28;20123;-72
2022/06/27 01:09:56;;;;;;;34.80;25.58;;;16.30;99.90;;;;;;5022514;28;20049;-72
2022/06/27 01:12:23;;;;;;;29.88;23.23;;;16.30;99.90;;;;;;5021035;28;20125;-73
2022/06/27 01:14:51;;;;;;;28.10;22.52;;;16.30;99.90;;;;;;5021340;28;20585;-73
2022/06/27 01:17:18;;;;;;;38.03;25.35;;;16.30;99.90;;;;;;5022343;28;20057;-73
2022/06/27 01:19:45;;;;;;;34.35;25.02;;;16.30;99.90;;;;;;5019297;28;20056;-73
2022/06/27 01:22:12;;;;;;;34.22;25.98;;;16.30;99.90;;;;;;5021719;28;20049;-73
2022/06/27 01:24:39;;;;;;;30.65;22.60;;;16.20;99.90;;;;;;5038594;28;20049;-73
2022/06/27 01:27:08;;;;;;;32.40;25.95;;;16.10;99.90;;;;;;5038716;28;20049;-75
2022/06/27 01:29:35;;;;;;;34.40;26.48;;;16.10;99.90;;;;;;5021619;28;20045;-73
2022/06/27 01:32:03;;;;;;;37.63;26.98;;;16.10;99.90;;;;;;5022067;28;20053;-73
2022/06/27 01:34:31;;;;;;;36.70;26.92;;;16.20;99.90;;;;;;5005166;28;20049;-74
2022/06/27 01:37:00;;;;;;;34.10;26.30;;;16.20;99.90;;;;;;5022387;28;20045;-75
2022/06/27 01:39:27;;;;;;;37.17;26.20;;;16.30;99.90;;;;;;5024365;28;20136;-75
2022/06/27 01:42:02;;;;;;;40.65;28.92;;;16.20;99.90;;;;;;5033954;28;20047;-73
2022/06/27 01:44:31;;;;;;;39.50;28.73;;;16.20;99.90;;;;;;5019546;28;20055;-74
2022/06/27 01:47:08;;;;;;;42.03;29.73;;;16.30;99.90;;;;;;5018464;28;20042;-75
2022/06/27 01:49:39;;;;;;;39.50;28.30;;;16.30;99.90;;;;;;5002403;28;20079;-75
2022/06/27 01:52:07;;;;;;;45.92;30.65;;;16.40;99.90;;;;;;5019445;28;20148;-72
2022/06/27 01:54:35;;;;;;;42.13;30.05;;;16.40;99.90;;;;;;5019532;28;20205;-72
2022/06/27 01:57:04;;;;;;;39.13;28.10;;;16.40;99.90;;;;;;5008000;28;20049;-73
2022/06/27 01:59:32;;;;;;;40.45;28.70;;;16.50;99.90;;;;;;5008641;28;20056;-72
2022/06/27 02:02:03;;;;;;;35.38;27.15;;;16.60;99.90;;;;;;5008538;28;20053;-73
2022/06/27 02:04:31;;;;;;;38.60;26.58;;;16.70;99.90;;;;;;5008319;28;20055;-75
2022/06/27 02:06:59;;;;;;;36.25;25.70;;;16.70;99.90;;;;;;5007799;28;20061;-74
2022/06/27 02:09:27;;;;;;;34.92;27.05;;;16.70;99.90;;;;;;5008346;28;20132;-75
2022/06/27 02:11:55;;;;;;;42.30;29.50;;;16.70;99.90;;;;;;5024394;28;20060;-75
2022/06/27 02:14:26;;;;;;;44.80;30.35;;;16.70;99.90;;;;;;5007867;28;20050;-74
2022/06/27 02:16:53;;;;;;;46.40;31.08;;;16.70;99.90;;;;;;5007981;28;20111;-74
2022/06/27 02:19:20;;;;;;;43.85;30.42;;;16.70;99.90;;;;;;5008590;28;20045;-74
2022/06/27 02:21:48;;;;;;;43.58;29.45;;;16.60;99.90;;;;;;5007576;28;20123;-74
2022/06/27 02:24:15;;;;;;;42.63;29.02;;;16.70;99.90;;;;;;5007668;28;20045;-74
2022/06/27 02:26:43;;;;;;;47.15;29.88;;;16.50;99.90;;;;;;5007597;28;20055;-74
2022/06/27 02:29:10;;;;;;;56.50;33.28;;;16.30;99.90;;;;;;5007518;28;20049;-74
2022/06/27 02:31:45;;;;;;;52.95;31.95;;;16.20;99.90;;;;;;5006669;28;20053;-74
2022/06/27 02:34:13;;;;;;;49.95;33.42;;;16.30;99.90;;;;;;5007584;28;20500;-74
2022/06/27 02:36:41;;;;;;;53.20;34.15;;;16.30;99.90;;;;;;5007354;28;20471;-74
2022/06/27 02:39:11;;;;;;;51.65;34.03;;;16.30;99.90;;;;;;5026339;28;20835;-74
2022/06/27 02:41:40;;;;;;;50.47;33.10;;;16.30;99.90;;;;;;5015869;28;20053;-74
2022/06/27 02:44:11;;;;;;;50.42;31.80;;;16.30;99.90;;;;;;5007342;28;20694;-74
2022/06/27 02:46:39;;;;;;;54.60;34.38;;;16.30;99.90;;;;;;5007638;28;20046;-73
2022/06/27 02:49:09;;;;;;;56.75;34.47;;;16.40;99.90;;;;;;5025914;28;20385;-73
2022/06/27 02:51:44;;;;;;;63.80;35.33;;;16.30;99.90;;;;;;5005359;28;20041;-73
2022/06/27 02:54:16;;;;;;;64.93;35.90;;;16.20;99.90;;;;;;5009844;28;20471;-73
2022/06/27 02:57:15;;;;;;;59.15;36.00;;;16.20;99.90;;;;;;5003570;28;20056;-74
2022/06/27 02:59:45;;;;;;;68.28;37.80;;;16.10;99.90;;;;;;4987893;28;20046;-73
2022/06/27 03:02:15;;;;;;;60.35;34.70;;;16.10;99.90;;;;;;4987341;28;20500;-74
2022/06/27 03:05:14;;;;;;;53.00;33.70;;;16.00;99.90;;;;;;5007909;28;20050;-74
2022/06/27 03:07:42;;;;;;;49.15;32.42;;;15.90;99.90;;;;;;5006131;28;20484;-73
2022/06/27 03:10:11;;;;;;;53.38;34.55;;;15.90;99.90;;;;;;5022825;28;20088;-74
2022/06/27 03:12:39;;;;;;;55.08;33.95;;;15.90;99.90;;;;;;4991215;28;20093;-74
2022/06/27 03:15:07;;;;;;;52.42;33.42;;;15.90;99.90;;;;;;5006185;28;20057;-74
2022/06/27 03:17:35;;;;;;;47.10;31.70;;;15.90;99.90;;;;;;5023943;28;20045;-74
2022/06/27 03:20:29;;;;;;;43.47;30.05;;;16.00;99.90;;;;;;4974555;28;20054;-74
2022/06/27 03:23:16;;;;;;;42.13;28.13;;;16.10;99.90;;;;;;5015575;28;20136;-74
2022/06/27 03:25:47;;;;;;;42.33;28.80;;;16.10;99.90;;;;;;5006391;28;20038;-74
2022/06/27 03:28:14;;;;;;;39.50;28.48;;;16.10;99.90;;;;;;5006887;28;20057;-74
2022/06/27 03:30:43;;;;;;;36.88;26.17;;;16.10;99.90;;;;;;5021992;28;20041;-74
2022/06/27 03:33:10;;;;;;;36.45;25.10;;;16.40;99.90;;;;;;5006731;28;20080;-74
2022/06/27 03:35:46;;;;;;;39.60;27.23;;;16.30;99.90;;;;;;4983029;28;20041;-74
2022/06/27 03:38:16;;;;;;;36.47;26.02;;;16.40;99.90;;;;;;5007797;28;20447;-75
2022/06/27 03:40:43;;;;;;;38.53;26.40;;;16.50;99.90;;;;;;5018489;28;20299;-75
2022/06/27 03:43:10;;;;;;;42.72;29.92;;;16.50;99.90;;;;;;5039637;28;20064;-75
2022/06/27 03:45:37;;;;;;;45.50;28.40;;;16.50;99.90;;;;;;5036794;28;20380;-74
2022/06/27 03:48:04;;;;;;;34.45;25.92;;;16.70;99.90;;;;;;5043460;28;20057;-75
2022/06/27 03:50:32;;;;;;;32.28;24.73;;;16.60;99.90;;;;;;5043406;28;20110;-75
2022/06/27 03:52:59;;;;;;;33.17;24.88;;;16.60;99.90;;;;;;5033532;28;20053;-75
2022/06/27 03:55:29;;;;;;;34.58;25.98;;;16.60;99.90;;;;;;4989329;28;20061;-75
2022/06/27 03:57:58;;;;;;;35.17;25.33;;;16.70;99.90;;;;;;4990064;28;20049;-74
2022/06/27 04:00:32;;;;;;;38.08;27.25;;;16.70;99.90;;;;;;5005845;28;20077;-75
2022/06/27 04:03:02;;;;;;;36.78;27.40;;;16.90;99.90;;;;;;5005697;28;20061;-75
2022/06/27 04:05:42;;;;;;;29.33;23.85;;;17.00;99.90;;;;;;5004015;28;20314;-75
2022/06/27 04:08:10;;;;;;;33.08;25.48;;;16.80;99.90;;;;;;5006917;28;20076;-75
2022/06/27 04:10:39;;;;;;;31.77;23.75;;;16.80;99.90;;;;;;4989801;28;20490;-76
2022/06/27 04:13:06;;;;;;;30.58;24.65;;;17.00;99.90;;;;;;5006625;28;20053;-75
2022/06/27 04:15:52;;;;;;;28.80;22.13;;;17.00;99.90;;;;;;5023424;28;20455;-75
2022/06/27 04:18:41;;;;;;;27.00;21.33;;;17.10;99.90;;;;;;5023483;28;20480;-76
2022/06/27 04:21:08;;;;;;;28.95;23.38;;;17.00;99.90;;;;;;5023541;28;20142;-76
2022/06/27 04:23:49;;;;;;;24.02;20.70;;;16.90;99.90;;;;;;5005108;28;20512;-76
2022/06/27 04:26:22;;;;;;;25.98;23.13;;;17.10;99.90;;;;;;5004900;28;20065;-76
2022/06/27 04:28:49;;;;;;;27.02;21.38;;;17.10;99.90;;;;;;5006226;28;20054;-76
2022/06/27 04:31:17;;;;;;;22.23;19.83;;;17.20;99.90;;;;;;4989594;28;20132;-76
2022/06/27 04:33:44;;;;;;;24.70;20.23;;;17.10;99.90;;;;;;5005446;28;20412;-76
2022/06/27 04:36:12;;;;;;;20.80;18.25;;;17.10;99.90;;;;;;5005204;28;20045;-75
2022/06/27 04:38:39;;;;;;;24.05;20.25;;;17.10;99.90;;;;;;5006363;28;20494;-76
2022/06/27 04:41:06;;;;;;;21.15;17.95;;;17.00;99.90;;;;;;5022965;28;20119;-76
2022/06/27 04:43:37;;;;;;;21.65;19.35;;;17.00;99.90;;;;;;5005443;28;20049;-76
2022/06/27 04:46:05;;;;;;;23.75;19.98;;;17.00;99.90;;;;;;4991489;28;20072;-76
2022/06/27 04:48:52;;;;;;;21.88;19.00;;;17.10;99.90;;;;;;5004994;28;20524;-76
2022/06/27 04:51:19;;;;;;;24.65;20.92;;;17.30;99.90;;;;;;5003549;28;20049;-76
2022/06/27 04:53:46;;;;;;;24.50;20.80;;;17.20;99.90;;;;;;5022919;28;20041;-76
2022/06/27 04:56:14;;;;;;;24.95;21.90;;;17.20;99.90;;;;;;5038491;28;20061;-76
2022/06/27 04:58:40;;;;;;;25.98;21.63;;;17.10;99.90;;;;;;5009391;28;20227;-76
2022/06/27 05:01:09;;;;;;;25.40;21.48;;;17.20;99.90;;;;;;5041339;28;20111;-76
2022/06/27 05:03:42;;;;;;;29.35;22.58;;;17.20;99.90;;;;;;5033756;28;20053;-76
2022/06/27 05:06:16;;;;;;;25.50;21.95;;;17.10;99.90;;;;;;4988875;28;20136;-76
2022/06/27 05:08:44;;;;;;;25.92;21.88;;;17.10;99.90;;;;;;5005904;28;20045;-76
2022/06/27 05:11:12;;;;;;;23.50;19.95;;;17.30;99.90;;;;;;5005586;28;20262;-76
2022/06/27 05:13:38;;;;;;;27.75;23.83;;;17.40;99.90;;;;;;5005153;28;20057;-75
2022/06/27 05:16:16;;;;;;;28.70;24.60;;;17.40;99.90;;;;;;5020630;28;20107;-76
2022/06/27 05:18:44;;;;;;;29.40;23.73;;;17.60;99.90;;;;;;4997094;28;20064;-76
2022/06/27 05:21:30;;;;;;;24.58;22.02;;;17.70;99.90;;;;;;4985434;28;20101;-76
2022/06/27 05:23:57;;;;;;;24.15;21.60;;;17.70;99.90;;;;;;5001781;28;20232;-76
2022/06/27 05:26:25;;;;;;;23.13;20.27;;;17.80;99.90;;;;;;4987542;28;20057;-76
2022/06/27 05:28:52;;;;;;;23.30;21.02;;;17.80;99.90;;;;;;5005394;28;20131;-76
2022/06/27 05:31:19;;;;;;;24.23;21.67;;;17.80;99.90;;;;;;5007527;28;20065;-76
2022/06/27 05:33:46;;;;;;;22.23;19.75;;;17.90;99.90;;;;;;5010195;28;20045;-76
2022/06/27 05:36:13;;;;;;;23.73;21.15;;;18.00;99.90;;;;;;5007969;28;20278;-76
2022/06/27 05:38:40;;;;;;;21.55;19.45;;;18.00;99.90;;;;;;5025838;28;20057;-76
2022/06/27 05:41:07;;;;;;;20.35;18.25;;;18.00;99.90;;;;;;5024727;28;20471;-77
2022/06/27 05:43:34;;;;;;;21.17;18.70;;;18.00;99.90;;;;;;5023852;28;20057;-76
2022/06/27 05:46:02;;;;;;;18.20;16.55;;;18.10;99.90;;;;;;5007170;28;20049;-77
2022/06/27 05:48:56;;;;;;;18.95;16.63;;;18.10;99.90;;;;;;5008379;28;20375;-77
2022/06/27 05:51:29;;;;;;;22.52;18.63;;;18.10;99.90;;;;;;5006539;28;20057;-76
2022/06/27 05:53:57;;;;;;;22.45;17.65;;;18.10;99.90;;;;;;5007227;28;20144;-76
2022/06/27 05:56:25;;;;;;;21.10;18.10;;;18.00;99.90;;;;;;5007420;28;20408;-77
2022/06/27 05:58:55;;;;;;;19.70;17.65;;;17.90;99.90;;;;;;4998211;28;20424;-76
2022/06/27 06:01:23;;;;;;;21.63;19.42;;;18.00;99.90;;;;;;5016252;28;20542;-76
2022/06/27 06:03:50;;;;;;;22.38;18.98;;;18.00;99.90;;;;;;5020249;28;20045;-76
2022/06/27 06:06:17;;;;;;;20.42;18.42;;;18.00;99.90;;;;;;5020264;28;20072;-74
2022/06/27 06:08:45;;;;;;;23.88;21.33;;;18.00;99.90;;;;;;5040044;28;20057;-76
2022/06/27 06:11:15;;;;;;;26.25;21.60;;;17.80;99.90;;;;;;5023802;28;20136;-75
2022/06/27 06:13:43;;;;;;;26.25;23.42;;;17.90;99.90;;;;;;5023999;28;20061;-76
2022/06/27 06:16:11;;;;;;;28.38;23.88;;;17.90;99.90;;;;;;5024452;28;20111;-76
2022/06/27 06:18:38;;;;;;;33.08;26.35;;;17.80;99.90;;;;;;5008663;28;20488;-75
2022/06/27 06:21:05;;;;;;;31.90;27.35;;;17.80;99.90;;;;;;5025648;28;20080;-76
2022/06/27 06:23:32;;;;;;;48.88;31.25;;;17.80;99.90;;;;;;5028359;28;20049;-75
2022/06/27 06:25:59;;;;;;;108.95;37.53;;;17.70;99.90;;;;;;5031347;28;20041;-75
2022/06/27 06:28:30;;;;;;;61.20;33.70;;;17.60;99.90;;;;;;5025854;28;20236;-76
2022/06/27 06:30:57;;;;;;;75.95;34.95;;;17.50;99.90;;;;;;5006992;28;20415;-76
2022/06/27 06:33:24;;;;;;;99.35;39.78;;;17.50;99.90;;;;;;5006723;28;20061;-75
2022/06/27 06:35:51;;;;;;;131.65;43.17;;;17.40;99.90;;;;;;5005388;28;20056;-76
2022/06/27 06:38:18;;;;;;;144.20;48.25;;;17.40;99.90;;;;;;5006488;28;20050;-76
2022/06/27 06:40:46;;;;;;;82.63;44.72;;;17.40;99.90;;;;;;5036374;28;20041;-75
2022/06/27 06:43:13;;;;;;;214.70;47.30;;;17.40;99.90;;;;;;5033701;28;20512;-76
2022/06/27 06:45:43;;;;;;;150.32;50.60;;;17.50;99.90;;;;;;5019621;28;20041;-76
2022/06/27 06:48:17;;;;;;;87.47;44.83;;;17.40;99.90;;;;;;5056345;22;20380;-68
2022/06/27 06:50:44;;;;;;;116.72;46.22;;;17.50;99.90;;;;;;5038949;28;20056;-68
2022/06/27 06:53:11;;;;;;;107.25;46.20;;;17.50;99.90;;;;;;5030347;28;20045;-67
2022/06/27 06:55:38;;;;;;;98.38;44.55;;;17.50;99.90;;;;;;5043813;28;20049;-69
2022/06/27 06:58:05;;;;;;;96.57;44.13;;;17.50;99.90;;;;;;5044597;28;20296;-69
2022/06/27 07:00:32;;;;;;;57.83;39.03;;;17.50;99.90;;;;;;5044167;28;20132;-69
2022/06/27 07:02:59;;;;;;;53.20;38.60;;;17.50;99.90;;;;;;5045294;28;20053;-69
2022/06/27 07:05:28;;;;;;;57.85;38.72;;;17.60;99.90;;;;;;5042912;28;20060;-69
2022/06/27 07:07:55;;;;;;;60.00;40.08;;;17.80;99.90;;;;;;5045840;28;20061;-70
2022/06/27 07:10:22;;;;;;;55.35;38.90;;;17.80;99.90;;;;;;5026600;28;20370;-68
2022/06/27 07:12:50;;;;;;;48.58;33.88;;;17.80;99.90;;;;;;5044184;28;20061;-69
2022/06/27 07:15:17;;;;;;;52.92;36.63;;;17.70;99.90;;;;;;5041933;28;20049;-68
2022/06/27 07:17:49;;;;;;;56.95;40.17;;;17.60;99.90;;;;;;5043233;28;20111;-69
2022/06/27 07:20:20;;;;;;;54.25;36.33;;;17.60;99.90;;;;;;5044273;28;20408;-69
2022/06/27 07:22:48;;;;;;;40.70;30.00;;;17.50;99.90;;;;;;5044334;28;20138;-69
2022/06/27 07:25:16;;;;;;;49.80;33.78;;;17.50;99.90;;;;;;5041178;28;20080;-69
2022/06/27 07:27:43;;;;;;;55.28;35.72;;;17.60;99.90;;;;;;5043760;28;20255;-69
2022/06/27 07:30:12;;;;;;;51.17;34.67;;;17.70;99.90;;;;;;5042965;28;20049;-68
2022/06/27 07:32:40;;;;;;;45.28;29.80;;;17.70;99.90;;;;;;5026114;28;20056;-69
2022/06/27 07:35:11;;;;;;;33.72;26.67;;;17.80;99.90;;;;;;5029133;28;20249;-70
2022/06/27 07:37:47;;;;;;;43.45;29.63;;;17.90;99.90;;;;;;5043399;28;20122;-70
2022/06/27 07:40:22;;;;;;;36.03;26.75;;;17.80;99.90;;;;;;5044284;28;20060;-69
2022/06/27 07:42:50;;;;;;;;;;;18.00;99.90;;;;;;5043957;28;20072;-69
2022/06/27 07:45:24;;;;;;;36.95;25.90;;;18.20;99.90;;;;;;5026159;28;20461;-70
2022/06/27 07:47:52;;;;;;;37.53;29.30;;;18.30;99.90;;;;;;5044759;28;20137;-71
2022/06/27 07:50:36;;;;;;;35.75;28.13;;;18.30;99.90;;;;;;5042232;28;20286;-69
2022/06/27 07:53:12;;;;;;;33.78;25.63;;;18.30;99.90;;;;;;5042896;28;20045;-70
2022/06/27 07:55:41;;;;;;;35.42;27.67;;;18.30;99.90;;;;;;5042395;28;20049;-66
2022/06/27 07:58:16;;;;;;;37.38;28.52;;;18.20;99.90;;;;;;5044313;28;20136;-70
2022/06/27 08:00:47;;;;;;;37.22;27.38;;;18.20;99.90;;;;;;5043196;28;20067;-70
2022/06/27 08:06:22;;;;;;;34.53;27.38;;;18.00;99.90;;;;;;5037634;28;20041;-70
2022/06/27 08:08:54;;;;;;;33.63;26.13;;;17.90;99.90;;;;;;5040934;28;20052;-70
2022/06/27 08:11:26;;;;;;;36.88;25.83;;;17.80;99.90;;;;;;5041135;28;20045;-71
2022/06/27 08:13:55;;;;;;;33.85;25.50;;;17.80;99.90;;;;;;5041611;28;20584;-70
2022/06/27 08:16:24;;;;;;;28.15;23.17;;;17.80;99.90;;;;;;5040893;28;20069;-70
2022/06/27 08:18:52;;;;;;;31.73;24.58;;;17.70;99.90;;;;;;5035328;28;20044;-70
2022/06/27 08:21:21;;;;;;;36.47;27.25;;;17.60;99.90;;;;;;5041082;28;20052;-70
2022/06/27 08:23:49;;;;;;;44.33;31.08;;;17.60;99.90;;;;;;5030342;28;20312;-69
2022/06/27 08:26:16;;;;;;;52.30;36.47;;;17.70;99.90;;;;;;5041405;28;20308;-70
2022/06/27 08:28:44;;;;;;;50.40;36.80;;;17.40;99.90;;;;;;5042861;28;20107;-70
2022/06/27 08:31:12;;;;;;;54.20;38.25;;;17.40;99.90;;;;;;5041721;28;20102;-70
2022/06/27 08:33:41;;;;;;;47.53;32.92;;;17.40;99.90;;;;;;5041237;28;20086;-70
2022/06/27 08:36:08;;;;;;;43.05;33.58;;;17.60;99.90;;;;;;5042003;28;20044;-70
2022/06/27 08:38:48;;;;;;;45.20;34.35;;;17.70;99.90;;;;;;5041378;28;20423;-70
2022/06/27 08:41:20;;;;;;;42.45;33.50;;;17.70;99.90;;;;;;5022225;28;20077;-67
2022/06/27 08:43:48;;;;;;;40.88;31.83;;;17.80;99.90;;;;;;5041253;28;20503;-67
2022/06/27 08:46:16;;;;;;;37.42;31.98;;;18.00;99.90;;;;;;5039630;28;20048;-67
2022/06/27 08:48:45;;;;;;;37.35;32.10;;;18.10;99.90;;;;;;5041472;28;20142;-68
2022/06/27 08:51:13;;;;;;;35.90;32.03;;;18.30;99.90;;;;;;5039756;28;20044;-68
2022/06/27 08:53:41;;;;;;;34.90;31.30;;;18.40;99.90;;;;;;5040975;28;20264;-71
2022/06/27 08:56:12;;;;;;;37.95;33.95;;;18.70;99.90;;;;;;5042159;28;20160;-71
2022/06/27 08:58:42;;;;;;;36.03;32.13;;;18.90;99.90;;;;;;5041989;28;20053;-69
2022/06/27 09:01:12;;;;;;;36.58;31.52;;;18.70;99.90;;;;;;5039861;28;20073;-70
2022/06/27 09:03:39;;;;;;;36.28;31.05;;;18.60;99.90;;;;;;5041263;28;20565;-70
2022/06/27 09:06:10;;;;;;;31.67;28.38;;;18.50;99.90;;;;;;5033717;28;20131;-71
2022/06/27 09:09:03;;;;;;;32.40;29.30;;;18.70;99.90;;;;;;5041313;28;20315;-71
2022/06/27 09:11:33;;;;;;;35.28;31.95;;;19.20;99.90;;;;;;5017586;28;20053;-71
2022/06/27 09:14:00;;;;;;;35.15;31.60;;;19.50;99.90;;;;;;5022875;28;20052;-70
2022/06/27 09:16:28;;;;;;;36.33;32.95;;;19.50;99.90;;;;;;5024493;28;20053;-71
2022/06/27 09:19:02;;;;;;;34.25;30.75;;;19.40;99.90;;;;;;5037138;28;20051;-70
2022/06/27 09:21:29;;;;;;;32.35;29.15;;;19.40;99.90;;;;;;5022371;28;20439;-71
2022/06/27 09:23:59;;;;;;;34.03;30.67;;;19.60;99.90;;;;;;5042356;28;20122;-71
2022/06/27 09:26:31;;;;;;;32.38;29.40;;;19.60;99.90;;;;;;5033612;28;20484;-70
2022/06/27 09:29:08;;;;;;;35.65;32.17;;;20.00;99.90;;;;;;5039052;28;20049;-71
2022/06/27 09:31:40;;;;;;;38.50;34.65;;;20.40;99.90;;;;;;5041624;28;20511;-70
2022/06/27 09:34:16;;;;;;;35.85;32.58;;;20.50;99.90;;;;;;5042640;28;20308;-71
2022/06/27 09:36:46;;;;;;;33.58;30.50;;;20.40;99.90;;;;;;5034151;28;20254;-71
2022/06/27 09:39:19;;;;;;;35.00;31.80;;;20.60;99.90;;;;;;5009490;28;20053;-71
2022/06/27 09:41:54;;;;;;;34.15;31.20;;;21.00;99.90;;;;;;5045345;28;20224;-71
2022/06/27 09:44:22;;;;;;;;;;;21.30;99.90;;;;;;5028475;28;20503;-73
2022/06/27 09:46:58;;;;;;;36.50;33.38;;;21.70;99.90;;;;;;5028088;28;20015;-72
2022/06/27 09:49:29;;;;;;;37.30;34.10;;;21.80;99.90;;;;;;5030706;28;20148;-72
2022/06/27 09:51:56;;;;;;;35.47;32.55;;;22.00;99.90;;;;;;5025024;28;20095;-72
2022/06/27 09:54:24;;;;;;;38.22;34.67;;;22.30;99.90;;;;;;5043925;28;20110;-72
2022/06/27 09:56:52;;;;;;;34.15;31.02;;;22.60;99.90;;;;;;5044443;28;20119;-72
2022/06/27 09:59:20;;;;;;;33.05;30.38;;;23.00;99.90;;;;;;5043666;28;20064;-70
2022/06/27 10:01:49;;;;;;;35.75;32.92;;;23.40;99.90;;;;;;5044357;28;20173;-72
2022/06/27 10:04:17;;;;;;;33.83;31.02;;;23.50;99.90;;;;;;5044169;28;20049;-72
2022/06/27 10:06:44;;;;;;;33.63;31.02;;;23.30;99.90;;;;;;5044287;28;20624;-72
2022/06/27 10:09:13;;;;;;;33.78;31.15;;;23.40;99.90;;;;;;5066453;28;20514;-71
2022/06/27 10:11:40;;;;;;;34.22;31.40;;;23.30;99.90;;;;;;5045934;28;20049;-73
2022/06/27 10:14:14;;;;;;;34.97;32.17;;;23.40;99.90;;;;;;5057010;28;20200;-72
2022/06/27 10:16:49;;;;;;;36.13;33.08;;;23.20;99.90;;;;;;5043750;28;20057;-72
2022/06/27 10:19:16;;;;;;;35.45;32.58;;;23.00;99.90;;;;;;5031562;28;20049;-71
2022/06/27 10:21:47;;;;;;;36.35;33.28;;;22.80;99.90;;;;;;5060708;28;20049;-72
2022/06/27 10:24:26;;;;;;;34.08;31.30;;;22.80;99.90;;;;;;5038498;28;20332;-72
2022/06/27 10:26:56;;;;;;;33.55;30.85;;;23.00;99.90;;;;;;5014869;28;20041;-71
2022/06/27 10:29:39;;;;;;;35.70;32.92;;;22.80;99.90;;;;;;5025738;28;20087;-72
2022/06/27 10:32:09;;;;;;;36.20;33.40;;;22.70;99.90;;;;;;5027183;28;20087;-71
2022/06/27 10:34:39;;;;;;;36.22;33.22;;;22.90;99.90;;;;;;5025007;28;20120;-73
2022/06/27 10:37:24;;;;;;;36.38;33.60;;;22.80;99.90;;;;;;5044168;28;20126;-72
2022/06/27 10:39:51;;;;;;;34.75;32.08;;;22.90;99.90;;;;;;5026066;28;20049;-72
2022/06/27 10:42:52;;;;;;;34.83;32.22;;;23.30;99.90;;;;;;5043735;28;20534;-72
2022/06/27 10:45:19;;;;;;;36.80;34.03;;;23.50;99.90;;;;;;5043056;28;20061;-72
2022/06/27 10:47:53;;;;;;;38.20;35.15;;;23.80;99.90;;;;;;5044272;28;20049;-74
2022/06/27 10:50:22;;;;;;;35.78;33.17;;;23.80;99.90;;;;;;5042001;28;20053;-71
2022/06/27 10:52:51;;;;;;;37.22;34.35;;;23.90;99.90;;;;;;5042979;28;20132;-73
2022/06/27 10:55:23;;;;;;;34.85;32.25;;;23.70;99.90;;;;;;5043418;28;20041;-70
2022/06/27 10:57:52;;;;;;;31.13;29.02;;;24.10;99.90;;;;;;5026543;28;20232;-73
2022/06/27 11:00:39;;;;;;;33.00;30.70;;;24.80;99.90;;;;;;5043283;28;20466;-71
2022/06/27 11:03:09;;;;;;;34.92;32.20;;;24.80;99.90;;;;;;5043473;28;20067;-73
2022/06/27 11:06:03;;;;;;;36.17;33.45;;;24.70;99.90;;;;;;5040252;28;20146;-72
2022/06/27 11:08:37;;;;;;;36.03;33.42;;;24.70;99.90;;;;;;5036314;28;20048;-70
2022/06/27 11:11:07;;;;;;;35.60;33.08;;;24.70;99.90;;;;;;5044372;28;20486;-73
2022/06/27 11:13:55;;;;;;;34.42;31.77;;;24.60;99.90;;;;;;5043119;28;20103;-73
2022/06/27 11:16:30;;;;;;;33.65;31.17;;;24.40;99.90;;;;;;5042087;28;20111;-71
2022/06/27 11:19:03;;;;;;;34.15;31.50;;;24.70;99.90;;;;;;5033778;28;20156;-71
2022/06/27 11:21:37;;;;;;;34.33;31.42;;;24.60;99.90;;;;;;5023473;28;20207;-73
2022/06/27 11:24:10;;;;;;;35.63;32.92;;;24.10;99.90;;;;;;5027104;28;20250;-73
2022/06/27 11:26:48;;;;;;;38.00;35.10;;;24.00;99.90;;;;;;5044047;28;20122;-72
2022/06/27 11:32:11;;;;;;;37.05;33.92;;;23.60;99.90;;;;;;5045193;28;20045;-73
2022/06/27 11:34:42;;;;;;;37.58;34.38;;;23.20;99.90;;;;;;5025308;28;20105;-72
2022/06/27 11:37:16;;;;;;;35.53;32.53;;;22.80;99.90;;;;;;5039826;28;20592;-73
2022/06/27 11:40:00;;;;;;;37.78;34.85;;;22.50;99.90;;;;;;5046695;28;20637;-71
2022/06/27 11:42:35;;;;;;;35.55;32.72;;;22.20;99.90;;;;;;5046600;28;20053;-73
2022/06/27 11:45:10;;;;;;;36.95;33.72;;;22.00;99.90;;;;;;5047633;28;20076;-73
2022/06/27 11:47:40;;;;;;;36.00;32.90;;;21.80;99.90;;;;;;5052387;28;20228;-72
2022/06/27 11:50:11;;;;;;;39.47;36.03;;;21.60;99.90;;;;;;5024516;28;20350;-72
2022/06/27 11:52:40;;;;;;;41.63;37.67;;;21.40;99.90;;;;;;5031217;28;20126;-72
2022/06/27 11:55:16;;;;;;;44.20;40.22;;;21.40;99.90;;;;;;5040207;28;20051;-71
2022/06/27 11:57:50;;;;;;;48.40;43.42;;;21.20;99.90;;;;;;5046699;28;20047;-72
2022/06/27 12:00:27;;;;;;;50.13;44.65;;;20.90;99.90;;;;;;5045131;28;20041;-70
2022/06/27 12:03:06;;;;;;;56.50;48.67;;;20.60;99.90;;;;;;5044500;28;20466;-71
2022/06/27 12:05:34;;;;;;;66.43;49.90;;;20.40;99.90;;;;;;5044379;28;20044;-71
2022/06/27 12:08:06;;;;;;;73.82;56.50;;;20.20;99.90;;;;;;5044855;28;20044;-70
2022/06/27 12:13:38;;;;;;;70.35;58.25;;;19.90;99.90;;;;;;5043659;28;20061;-70
2022/06/27 12:16:07;;;;;;;74.47;59.67;;;19.80;99.90;;;;;;5044321;28;20037;-70
2022/06/27 12:18:41;;;;;;;80.82;63.10;;;19.50;99.90;;;;;;5037478;28;20057;-70
2022/06/27 12:21:08;;;;;;;91.10;66.78;;;19.20;99.90;;;;;;5023310;28;20034;-70
2022/06/27 12:23:36;;;;;;;91.97;64.85;;;19.10;99.90;;;;;;5026655;28;20041;-71
2022/06/27 12:26:04;;;;;;;84.43;60.15;;;19.10;99.90;;;;;;5030546;28;20051;-71
2022/06/27 12:28:31;;;;;;;71.63;56.05;;;19.00;99.90;;;;;;5042133;28;20053;-70
2022/06/27 12:30:58;;;;;;;82.45;60.40;;;18.90;99.90;;;;;;5041396;28;20669;-71
2022/06/27 12:33:25;;;;;;;81.65;59.78;;;19.00;99.90;;;;;;5042215;28;20056;-68
2022/06/27 12:35:51;;;;;;;83.68;60.17;;;19.00;99.90;;;;;;5031687;28;20041;-68
2022/06/27 12:38:18;;;;;;;88.90;61.50;;;19.00;99.90;;;;;;5042066;28;20045;-69
2022/06/27 12:40:45;;;;;;;92.20;64.97;;;19.00;99.90;;;;;;5056787;28;20137;-69
2022/06/27 12:43:12;;;;;;;88.45;61.00;;;19.10;99.90;;;;;;5062473;28;20048;-71
2022/06/27 12:45:40;;;;;;;84.75;62.25;;;19.00;99.90;;;;;;5062303;28;20127;-70
2022/06/27 12:51:01;;;;;;;77.03;56.70;;;19.00;99.90;;;;;;5025427;28;20060;-74
2022/06/27 12:53:28;;;;;;;86.72;62.20;;;19.00;99.90;;;;;;5015126;28;20076;-73
2022/06/27 12:55:57;;;;;;;82.18;58.33;;;19.00;99.90;;;;;;5016757;28;20079;-73